Nearby METAR Reports

Aktualna pogoda na lotniskach (dane METAR)

 

EPGD - Gdansk/Rebiechow, Poland
Distance from station: ENE 27mi, 44km
Updated: Fri, 19-Apr-2024 11:00pm PDT
Light snow, Rain, Overcast
Light snow, Rain, Overcast
 Wind from NNE
Wind: NNE 12 mph , 19 km/h
Temperature: 34°F , 1°C
Wind Chill: 25°F , -4°C
Dew Point: 30°F , -1°C
Humidity: 87%
Barometer: 29.74 inHg , 1007 hPa
Summary: Light snow, Rain
Clouds: Overcast
Visibility: 6 miles , 10 km
Cloud details: Overcast 2000 ft
2024/04/20 06:00 EPGD 200600Z 02010KT 340V040 9999 -SNRA OVC020 01/M01 Q1007
EPSC - Szczecin/Golenio, Poland
Distance from station: WSW 128mi, 205km
Updated: Fri, 19-Apr-2024 11:00pm PDT
Mostly Cloudy
Mostly Cloudy
 Wind from NNE
Wind: NNE 9 mph , 15 km/h
Temperature: 37°F , 3°C
Wind Chill: 30°F , -1°C
Dew Point: 34°F , 1°C
Humidity: 87%
Barometer: 29.83 inHg , 1010 hPa
Clouds: Mostly Cloudy
Visibility: 6 miles , 10 km
Cloud details: Few Clouds 600 ft
Mostly Cloudy 900 ft
2024/04/20 06:00 EPSC 200600Z 03008KT 9999 FEW006 BKN009 03/01 Q1010
 
EPPO - Poznan/Lawica, Poland
Distance from station: SSW 131mi, 210km
Updated: Fri, 19-Apr-2024 11:00pm PDT
Overcast
Overcast
 Wind from NNW
Wind: NNW 7 mph , 11 km/h
Temperature: 41°F , 5°C
Wind Chill: 36°F , 2°C
Dew Point: 41°F , 5°C
Humidity: 100%
Barometer: 29.71 inHg , 1006 hPa
Clouds: Overcast
Visibility: 6 miles , 10 km
Cloud details: Mostly Cloudy 500 ft
Overcast 3100 ft
2024/04/20 06:00 EPPO 200600Z 34006KT 9999 BKN005 OVC031 05/05 Q1006
EPLL - Lodz/Lublinek, Poland
Distance from station: SSE 184mi, 296km
Updated: Fri, 19-Apr-2024 11:00pm PDT
Mostly Cloudy
Mostly Cloudy
 Wind from SW
Wind: SW 6 mph , 9 km/h
Temperature: 43°F , 6°C
Wind Chill: 39°F , 4°C
Dew Point: 41°F , 5°C
Humidity: 93%
Barometer: 29.68 inHg , 1005 hPa
Clouds: Mostly Cloudy
Visibility: 6 miles , 10 km
Cloud details: Mostly Cloudy 600 ft
2024/04/20 06:00 EPLL 200600Z 22005KT 190V250 9999 BKN006 06/05 Q1005
 
EPWA - Warsaw/Okecie, Poland
Distance from station: SE 191mi, 307km
Updated: Fri, 19-Apr-2024 11:00pm PDT
Mostly Cloudy
Mostly Cloudy
 Wind from SSW
Wind: SSW 7 mph , 11 km/h
Temperature: 43°F , 6°C
Wind Chill: 39°F , 4°C
Dew Point: 41°F , 5°C
Humidity: 93%
Barometer: 29.68 inHg , 1005 hPa
Clouds: Mostly Cloudy
Visibility: 6 miles , 10 km
Cloud details: Few Clouds 1000 ft
Mostly Cloudy 2600 ft
2024/04/20 06:00 EPWA 200600Z 21006KT 9999 FEW010 BKN026 06/05 Q1005 NOSIG
EPWR - Wroclaw/Strachow, Poland
Distance from station: S 219mi, 352km
Updated: Fri, 19-Apr-2024 11:00pm PDT
Mostly Cloudy
Mostly Cloudy
 Wind from WSW
Wind: WSW 9 mph , 15 km/h
Temperature: 43°F , 6°C
Wind Chill: 38°F , 3°C
Dew Point: 39°F , 4°C
Humidity: 87%
Barometer: 29.71 inHg , 1006 hPa
Clouds: Mostly Cloudy
Visibility: 6 miles , 10 km
Cloud details: Partly Cloudy 900 ft
Mostly Cloudy 2000 ft
2024/04/20 06:00 EPWR 200600Z 25008KT 9999 SCT009 BKN020 06/04 Q1006

Metar display script from Saratoga-Weather.org